sensor_id;sensor_type;location;lat;lon;timestamp;P1;durP1;ratioP1;P2;durP2;ratioP2
11763;SDS011;5939;56.522;14.950;2024-03-02T00:02:43;55.37;;;30.33;;
11763;SDS011;5939;56.522;14.950;2024-03-02T00:05:10;52.57;;;31.77;;
11763;SDS011;5939;56.522;14.950;2024-03-02T00:07:56;53.73;;;30.40;;
11763;SDS011;5939;56.522;14.950;2024-03-02T00:10:26;53.33;;;30.20;;
11763;SDS011;5939;56.522;14.950;2024-03-02T00:13:02;51.37;;;31.07;;
11763;SDS011;5939;56.522;14.950;2024-03-02T00:15:46;49.53;;;29.00;;
11763;SDS011;5939;56.522;14.950;2024-03-02T00:18:16;52.83;;;29.93;;
11763;SDS011;5939;56.522;14.950;2024-03-02T00:20:45;50.30;;;29.27;;
11763;SDS011;5939;56.522;14.950;2024-03-02T00:23:12;52.40;;;29.33;;
11763;SDS011;5939;56.522;14.950;2024-03-02T00:25:41;47.90;;;27.20;;
11763;SDS011;5939;56.522;14.950;2024-03-02T00:28:16;47.67;;;28.43;;
11763;SDS011;5939;56.522;14.950;2024-03-02T00:35:58;50.27;;;27.57;;
11763;SDS011;5939;56.522;14.950;2024-03-02T00:38:25;49.13;;;28.90;;
11763;SDS011;5939;56.522;14.950;2024-03-02T00:40:51;48.67;;;29.50;;
11763;SDS011;5939;56.522;14.950;2024-03-02T00:45:54;49.40;;;27.93;;
11763;SDS011;5939;56.522;14.950;2024-03-02T00:48:20;45.20;;;26.63;;
11763;SDS011;5939;56.522;14.950;2024-03-02T00:50:46;43.20;;;27.57;;
11763;SDS011;5939;56.522;14.950;2024-03-02T00:53:15;42.83;;;25.97;;
11763;SDS011;5939;56.522;14.950;2024-03-02T00:55:42;46.97;;;27.13;;
11763;SDS011;5939;56.522;14.950;2024-03-02T00:58:12;44.43;;;27.03;;
11763;SDS011;5939;56.522;14.950;2024-03-02T01:00:38;44.77;;;25.00;;
11763;SDS011;5939;56.522;14.950;2024-03-02T01:03:03;43.53;;;25.33;;
11763;SDS011;5939;56.522;14.950;2024-03-02T01:05:29;41.00;;;23.93;;
11763;SDS011;5939;56.522;14.950;2024-03-02T01:07:55;42.53;;;25.77;;
11763;SDS011;5939;56.522;14.950;2024-03-02T01:10:20;41.57;;;25.20;;
11763;SDS011;5939;56.522;14.950;2024-03-02T01:12:46;41.10;;;25.67;;
11763;SDS011;5939;56.522;14.950;2024-03-02T01:15:12;41.53;;;24.33;;
11763;SDS011;5939;56.522;14.950;2024-03-02T01:17:37;41.00;;;23.90;;
11763;SDS011;5939;56.522;14.950;2024-03-02T01:20:03;39.87;;;23.20;;
11763;SDS011;5939;56.522;14.950;2024-03-02T01:22:29;42.93;;;24.90;;
11763;SDS011;5939;56.522;14.950;2024-03-02T01:24:56;38.13;;;22.63;;
11763;SDS011;5939;56.522;14.950;2024-03-02T01:27:21;39.87;;;23.73;;
11763;SDS011;5939;56.522;14.950;2024-03-02T01:29:47;38.87;;;23.80;;
11763;SDS011;5939;56.522;14.950;2024-03-02T01:32:12;38.77;;;23.90;;
11763;SDS011;5939;56.522;14.950;2024-03-02T01:34:38;35.10;;;22.23;;
11763;SDS011;5939;56.522;14.950;2024-03-02T01:37:04;35.63;;;22.63;;
11763;SDS011;5939;56.522;14.950;2024-03-02T01:39:29;38.33;;;23.60;;
11763;SDS011;5939;56.522;14.950;2024-03-02T01:41:55;35.20;;;23.23;;
11763;SDS011;5939;56.522;14.950;2024-03-02T01:44:21;37.03;;;23.20;;
11763;SDS011;5939;56.522;14.950;2024-03-02T01:46:46;41.57;;;23.97;;
11763;SDS011;5939;56.522;14.950;2024-03-02T01:49:12;35.77;;;23.20;;
11763;SDS011;5939;56.522;14.950;2024-03-02T01:51:38;36.53;;;22.87;;
11763;SDS011;5939;56.522;14.950;2024-03-02T01:54:03;38.87;;;22.83;;
11763;SDS011;5939;56.522;14.950;2024-03-02T01:56:29;44.03;;;24.33;;
11763;SDS011;5939;56.522;14.950;2024-03-02T01:58:55;37.73;;;23.80;;
11763;SDS011;5939;56.522;14.950;2024-03-02T02:01:20;37.43;;;23.30;;
11763;SDS011;5939;56.522;14.950;2024-03-02T02:03:46;39.87;;;23.03;;
11763;SDS011;5939;56.522;14.950;2024-03-02T02:06:12;42.17;;;23.73;;
11763;SDS011;5939;56.522;14.950;2024-03-02T02:08:37;39.93;;;23.33;;
11763;SDS011;5939;56.522;14.950;2024-03-02T02:11:03;41.03;;;23.77;;
11763;SDS011;5939;56.522;14.950;2024-03-02T02:13:29;39.83;;;23.33;;
11763;SDS011;5939;56.522;14.950;2024-03-02T02:15:54;38.17;;;23.03;;
11763;SDS011;5939;56.522;14.950;2024-03-02T02:18:20;38.37;;;23.83;;
11763;SDS011;5939;56.522;14.950;2024-03-02T02:20:45;42.57;;;24.20;;
11763;SDS011;5939;56.522;14.950;2024-03-02T02:23:11;38.53;;;23.60;;
11763;SDS011;5939;56.522;14.950;2024-03-02T02:25:38;38.03;;;23.03;;
11763;SDS011;5939;56.522;14.950;2024-03-02T02:28:04;35.67;;;22.93;;
11763;SDS011;5939;56.522;14.950;2024-03-02T02:30:30;43.57;;;24.37;;
11763;SDS011;5939;56.522;14.950;2024-03-02T02:32:57;38.60;;;23.93;;
11763;SDS011;5939;56.522;14.950;2024-03-02T02:35:23;38.47;;;22.87;;
11763;SDS011;5939;56.522;14.950;2024-03-02T02:37:52;40.63;;;23.80;;
11763;SDS011;5939;56.522;14.950;2024-03-02T02:40:19;38.43;;;23.30;;
11763;SDS011;5939;56.522;14.950;2024-03-02T02:42:45;39.83;;;22.97;;
11763;SDS011;5939;56.522;14.950;2024-03-02T02:45:11;41.33;;;24.50;;
11763;SDS011;5939;56.522;14.950;2024-03-02T02:47:38;43.37;;;25.10;;
11763;SDS011;5939;56.522;14.950;2024-03-02T02:50:04;38.60;;;23.27;;
11763;SDS011;5939;56.522;14.950;2024-03-02T02:52:32;36.20;;;22.43;;
11763;SDS011;5939;56.522;14.950;2024-03-02T02:54:58;37.70;;;23.57;;
11763;SDS011;5939;56.522;14.950;2024-03-02T02:57:24;39.17;;;22.53;;
11763;SDS011;5939;56.522;14.950;2024-03-02T02:59:50;40.83;;;22.63;;
11763;SDS011;5939;56.522;14.950;2024-03-02T03:02:15;37.47;;;21.53;;
11763;SDS011;5939;56.522;14.950;2024-03-02T03:04:41;36.97;;;21.93;;
11763;SDS011;5939;56.522;14.950;2024-03-02T03:07:07;34.80;;;21.37;;
11763;SDS011;5939;56.522;14.950;2024-03-02T03:09:32;39.50;;;22.10;;
11763;SDS011;5939;56.522;14.950;2024-03-02T03:11:58;40.43;;;23.40;;
11763;SDS011;5939;56.522;14.950;2024-03-02T03:14:24;40.60;;;23.47;;
11763;SDS011;5939;56.522;14.950;2024-03-02T03:16:49;39.80;;;23.37;;
11763;SDS011;5939;56.522;14.950;2024-03-02T03:19:15;38.80;;;22.30;;
11763;SDS011;5939;56.522;14.950;2024-03-02T03:21:43;39.87;;;22.50;;
11763;SDS011;5939;56.522;14.950;2024-03-02T03:24:08;37.67;;;22.23;;
11763;SDS011;5939;56.522;14.950;2024-03-02T03:26:35;40.60;;;22.27;;
11763;SDS011;5939;56.522;14.950;2024-03-02T03:29:01;36.23;;;21.80;;
11763;SDS011;5939;56.522;14.950;2024-03-02T03:31:28;39.50;;;22.53;;
11763;SDS011;5939;56.522;14.950;2024-03-02T03:33:54;33.80;;;20.87;;
11763;SDS011;5939;56.522;14.950;2024-03-02T03:36:20;36.90;;;21.53;;
11763;SDS011;5939;56.522;14.950;2024-03-02T03:38:45;36.93;;;23.47;;
11763;SDS011;5939;56.522;14.950;2024-03-02T03:41:11;34.70;;;21.63;;
11763;SDS011;5939;56.522;14.950;2024-03-02T03:43:37;34.43;;;21.13;;
11763;SDS011;5939;56.522;14.950;2024-03-02T03:46:02;40.40;;;23.23;;
11763;SDS011;5939;56.522;14.950;2024-03-02T03:48:28;32.87;;;20.77;;
11763;SDS011;5939;56.522;14.950;2024-03-02T03:50:56;38.97;;;21.97;;
11763;SDS011;5939;56.522;14.950;2024-03-02T03:53:22;35.83;;;21.77;;
11763;SDS011;5939;56.522;14.950;2024-03-02T03:55:47;34.77;;;20.70;;
11763;SDS011;5939;56.522;14.950;2024-03-02T03:58:14;34.57;;;21.60;;
11763;SDS011;5939;56.522;14.950;2024-03-02T04:00:42;35.57;;;21.57;;
11763;SDS011;5939;56.522;14.950;2024-03-02T04:03:07;37.00;;;22.10;;
11763;SDS011;5939;56.522;14.950;2024-03-02T04:05:33;35.43;;;20.50;;
11763;SDS011;5939;56.522;14.950;2024-03-02T04:07:59;37.40;;;21.57;;
11763;SDS011;5939;56.522;14.950;2024-03-02T04:10:25;38.93;;;21.77;;
11763;SDS011;5939;56.522;14.950;2024-03-02T04:12:51;36.60;;;21.50;;
11763;SDS011;5939;56.522;14.950;2024-03-02T04:15:16;34.10;;;20.47;;
11763;SDS011;5939;56.522;14.950;2024-03-02T04:17:43;36.43;;;20.77;;
11763;SDS011;5939;56.522;14.950;2024-03-02T04:20:09;33.63;;;19.87;;
11763;SDS011;5939;56.522;14.950;2024-03-02T04:22:37;36.23;;;19.50;;
11763;SDS011;5939;56.522;14.950;2024-03-02T04:25:03;36.03;;;21.00;;
11763;SDS011;5939;56.522;14.950;2024-03-02T04:27:30;36.73;;;21.57;;
11763;SDS011;5939;56.522;14.950;2024-03-02T04:29:57;35.03;;;21.40;;
11763;SDS011;5939;56.522;14.950;2024-03-02T04:32:22;35.40;;;21.03;;
11763;SDS011;5939;56.522;14.950;2024-03-02T04:34:48;35.10;;;21.10;;
11763;SDS011;5939;56.522;14.950;2024-03-02T04:37:14;36.70;;;21.97;;
11763;SDS011;5939;56.522;14.950;2024-03-02T04:39:40;35.50;;;20.97;;
11763;SDS011;5939;56.522;14.950;2024-03-02T04:42:05;34.70;;;20.93;;
11763;SDS011;5939;56.522;14.950;2024-03-02T04:44:31;32.10;;;19.07;;
11763;SDS011;5939;56.522;14.950;2024-03-02T04:46:57;34.10;;;20.60;;
11763;SDS011;5939;56.522;14.950;2024-03-02T04:49:23;32.90;;;19.83;;
11763;SDS011;5939;56.522;14.950;2024-03-02T04:51:48;34.13;;;19.87;;
11763;SDS011;5939;56.522;14.950;2024-03-02T04:54:14;33.10;;;19.90;;
11763;SDS011;5939;56.522;14.950;2024-03-02T04:56:40;34.17;;;20.47;;
11763;SDS011;5939;56.522;14.950;2024-03-02T04:59:18;34.87;;;20.37;;
11763;SDS011;5939;56.522;14.950;2024-03-02T05:01:44;32.20;;;19.87;;
11763;SDS011;5939;56.522;14.950;2024-03-02T05:04:10;34.47;;;19.23;;
11763;SDS011;5939;56.522;14.950;2024-03-02T05:06:39;32.37;;;19.40;;
11763;SDS011;5939;56.522;14.950;2024-03-02T05:09:08;32.50;;;20.00;;
11763;SDS011;5939;56.522;14.950;2024-03-02T05:11:34;32.30;;;19.73;;
11763;SDS011;5939;56.522;14.950;2024-03-02T05:14:03;37.53;;;21.00;;
11763;SDS011;5939;56.522;14.950;2024-03-02T05:16:32;33.00;;;19.87;;
11763;SDS011;5939;56.522;14.950;2024-03-02T05:19:05;33.80;;;19.40;;
11763;SDS011;5939;56.522;14.950;2024-03-02T05:21:33;32.63;;;19.93;;
11763;SDS011;5939;56.522;14.950;2024-03-02T05:23:59;34.43;;;19.17;;
11763;SDS011;5939;56.522;14.950;2024-03-02T05:26:25;38.47;;;20.50;;
11763;SDS011;5939;56.522;14.950;2024-03-02T05:28:51;30.83;;;17.93;;
11763;SDS011;5939;56.522;14.950;2024-03-02T05:31:17;32.57;;;20.20;;
11763;SDS011;5939;56.522;14.950;2024-03-02T05:33:42;29.77;;;18.77;;
11763;SDS011;5939;56.522;14.950;2024-03-02T05:36:08;30.77;;;19.17;;
11763;SDS011;5939;56.522;14.950;2024-03-02T05:38:34;32.37;;;19.23;;
11763;SDS011;5939;56.522;14.950;2024-03-02T05:41:00;31.60;;;18.70;;
11763;SDS011;5939;56.522;14.950;2024-03-02T05:43:26;32.63;;;18.87;;
11763;SDS011;5939;56.522;14.950;2024-03-02T05:45:52;29.07;;;18.50;;
11763;SDS011;5939;56.522;14.950;2024-03-02T05:48:18;28.97;;;18.10;;
11763;SDS011;5939;56.522;14.950;2024-03-02T05:50:43;30.30;;;18.27;;
11763;SDS011;5939;56.522;14.950;2024-03-02T05:53:09;28.90;;;17.07;;
11763;SDS011;5939;56.522;14.950;2024-03-02T05:55:35;33.87;;;19.40;;
11763;SDS011;5939;56.522;14.950;2024-03-02T05:58:00;32.57;;;19.37;;
11763;SDS011;5939;56.522;14.950;2024-03-02T06:00:32;31.37;;;18.73;;
11763;SDS011;5939;56.522;14.950;2024-03-02T06:02:58;31.87;;;19.43;;
11763;SDS011;5939;56.522;14.950;2024-03-02T06:05:24;32.07;;;18.80;;
11763;SDS011;5939;56.522;14.950;2024-03-02T06:07:50;30.43;;;17.90;;
11763;SDS011;5939;56.522;14.950;2024-03-02T06:10:15;33.20;;;18.70;;
11763;SDS011;5939;56.522;14.950;2024-03-02T06:12:41;30.07;;;18.33;;
11763;SDS011;5939;56.522;14.950;2024-03-02T06:15:07;28.43;;;17.90;;
11763;SDS011;5939;56.522;14.950;2024-03-02T06:17:34;30.97;;;19.17;;
11763;SDS011;5939;56.522;14.950;2024-03-02T06:20:00;31.27;;;18.00;;
11763;SDS011;5939;56.522;14.950;2024-03-02T06:22:26;29.97;;;18.00;;
11763;SDS011;5939;56.522;14.950;2024-03-02T06:24:51;27.40;;;18.20;;
11763;SDS011;5939;56.522;14.950;2024-03-02T06:27:17;29.97;;;18.27;;
11763;SDS011;5939;56.522;14.950;2024-03-02T06:29:43;29.03;;;18.97;;
11763;SDS011;5939;56.522;14.950;2024-03-02T06:32:08;31.83;;;18.93;;
11763;SDS011;5939;56.522;14.950;2024-03-02T06:34:34;28.23;;;18.47;;
11763;SDS011;5939;56.522;14.950;2024-03-02T06:37:00;28.47;;;17.57;;
11763;SDS011;5939;56.522;14.950;2024-03-02T06:39:25;28.60;;;17.37;;
11763;SDS011;5939;56.522;14.950;2024-03-02T06:41:51;28.67;;;18.47;;
11763;SDS011;5939;56.522;14.950;2024-03-02T06:44:17;26.47;;;17.00;;
11763;SDS011;5939;56.522;14.950;2024-03-02T06:46:43;29.27;;;16.77;;
11763;SDS011;5939;56.522;14.950;2024-03-02T06:49:08;26.07;;;17.33;;
11763;SDS011;5939;56.522;14.950;2024-03-02T06:51:35;27.17;;;16.33;;
11763;SDS011;5939;56.522;14.950;2024-03-02T06:54:01;25.90;;;17.67;;
11763;SDS011;5939;56.522;14.950;2024-03-02T06:56:27;25.53;;;16.80;;
11763;SDS011;5939;56.522;14.950;2024-03-02T06:58:53;26.70;;;17.40;;
11763;SDS011;5939;56.522;14.950;2024-03-02T07:01:18;27.20;;;17.10;;
11763;SDS011;5939;56.522;14.950;2024-03-02T07:03:45;26.30;;;17.47;;
11763;SDS011;5939;56.522;14.950;2024-03-02T07:06:11;26.23;;;16.47;;
11763;SDS011;5939;56.522;14.950;2024-03-02T07:08:36;28.60;;;17.90;;
11763;SDS011;5939;56.522;14.950;2024-03-02T07:11:02;24.23;;;16.00;;
11763;SDS011;5939;56.522;14.950;2024-03-02T07:13:28;24.17;;;16.33;;
11763;SDS011;5939;56.522;14.950;2024-03-02T07:15:54;24.60;;;16.23;;
11763;SDS011;5939;56.522;14.950;2024-03-02T07:18:31;22.73;;;15.47;;
11763;SDS011;5939;56.522;14.950;2024-03-02T07:20:58;22.53;;;15.13;;
11763;SDS011;5939;56.522;14.950;2024-03-02T07:23:26;23.10;;;15.80;;
11763;SDS011;5939;56.522;14.950;2024-03-02T07:25:55;23.77;;;15.07;;
11763;SDS011;5939;56.522;14.950;2024-03-02T07:28:25;24.63;;;16.27;;
11763;SDS011;5939;56.522;14.950;2024-03-02T07:31:00;22.40;;;15.37;;
11763;SDS011;5939;56.522;14.950;2024-03-02T07:33:26;21.20;;;15.47;;
11763;SDS011;5939;56.522;14.950;2024-03-02T07:35:53;24.17;;;15.67;;
11763;SDS011;5939;56.522;14.950;2024-03-02T07:38:20;24.30;;;16.03;;
11763;SDS011;5939;56.522;14.950;2024-03-02T07:40:46;22.77;;;14.67;;
11763;SDS011;5939;56.522;14.950;2024-03-02T07:43:15;24.53;;;15.23;;
11763;SDS011;5939;56.522;14.950;2024-03-02T07:45:41;21.97;;;14.90;;
11763;SDS011;5939;56.522;14.950;2024-03-02T07:48:07;22.70;;;15.10;;
11763;SDS011;5939;56.522;14.950;2024-03-02T07:50:33;22.07;;;14.07;;
11763;SDS011;5939;56.522;14.950;2024-03-02T07:53:00;25.27;;;14.90;;
11763;SDS011;5939;56.522;14.950;2024-03-02T07:55:26;19.07;;;13.10;;
11763;SDS011;5939;56.522;14.950;2024-03-02T07:57:52;20.50;;;14.20;;
11763;SDS011;5939;56.522;14.950;2024-03-02T08:00:18;21.40;;;14.33;;
11763;SDS011;5939;56.522;14.950;2024-03-02T08:02:43;21.50;;;14.80;;
11763;SDS011;5939;56.522;14.950;2024-03-02T08:05:09;22.20;;;14.50;;
11763;SDS011;5939;56.522;14.950;2024-03-02T08:07:35;22.00;;;14.20;;
11763;SDS011;5939;56.522;14.950;2024-03-02T08:10:01;20.90;;;13.50;;
11763;SDS011;5939;56.522;14.950;2024-03-02T08:12:26;19.40;;;13.30;;
11763;SDS011;5939;56.522;14.950;2024-03-02T08:14:52;20.07;;;13.77;;
11763;SDS011;5939;56.522;14.950;2024-03-02T08:17:18;20.40;;;13.77;;
11763;SDS011;5939;56.522;14.950;2024-03-02T08:19:43;22.60;;;13.63;;
11763;SDS011;5939;56.522;14.950;2024-03-02T08:22:09;22.03;;;13.77;;
11763;SDS011;5939;56.522;14.950;2024-03-02T08:24:35;19.53;;;12.77;;
11763;SDS011;5939;56.522;14.950;2024-03-02T08:27:01;17.60;;;12.50;;
11763;SDS011;5939;56.522;14.950;2024-03-02T08:29:27;19.33;;;13.20;;
11763;SDS011;5939;56.522;14.950;2024-03-02T08:31:53;21.13;;;13.87;;
11763;SDS011;5939;56.522;14.950;2024-03-02T08:34:19;18.03;;;12.93;;
11763;SDS011;5939;56.522;14.950;2024-03-02T08:36:45;17.53;;;12.83;;
11763;SDS011;5939;56.522;14.950;2024-03-02T08:39:11;18.40;;;12.30;;
11763;SDS011;5939;56.522;14.950;2024-03-02T08:41:49;19.77;;;12.73;;
11763;SDS011;5939;56.522;14.950;2024-03-02T08:44:16;19.33;;;12.50;;
11763;SDS011;5939;56.522;14.950;2024-03-02T08:46:42;16.57;;;12.90;;
11763;SDS011;5939;56.522;14.950;2024-03-02T08:49:09;17.90;;;13.30;;
11763;SDS011;5939;56.522;14.950;2024-03-02T08:51:35;17.27;;;12.50;;
11763;SDS011;5939;56.522;14.950;2024-03-02T08:54:00;17.30;;;11.77;;
11763;SDS011;5939;56.522;14.950;2024-03-02T08:56:26;21.63;;;13.53;;
11763;SDS011;5939;56.522;14.950;2024-03-02T08:58:52;19.50;;;13.10;;
11763;SDS011;5939;56.522;14.950;2024-03-02T09:01:18;19.17;;;12.37;;
11763;SDS011;5939;56.522;14.950;2024-03-02T09:03:46;19.50;;;12.47;;
11763;SDS011;5939;56.522;14.950;2024-03-02T09:06:14;19.77;;;13.37;;
11763;SDS011;5939;56.522;14.950;2024-03-02T09:08:41;16.70;;;12.20;;
11763;SDS011;5939;56.522;14.950;2024-03-02T09:11:08;18.53;;;12.33;;
11763;SDS011;5939;56.522;14.950;2024-03-02T09:13:34;18.03;;;12.20;;
11763;SDS011;5939;56.522;14.950;2024-03-02T09:16:00;21.00;;;12.77;;
11763;SDS011;5939;56.522;14.950;2024-03-02T09:18:26;19.00;;;12.50;;
11763;SDS011;5939;56.522;14.950;2024-03-02T09:20:52;18.87;;;11.73;;
11763;SDS011;5939;56.522;14.950;2024-03-02T09:23:17;19.30;;;12.57;;
11763;SDS011;5939;56.522;14.950;2024-03-02T09:25:43;19.47;;;12.10;;
11763;SDS011;5939;56.522;14.950;2024-03-02T09:28:10;17.63;;;11.87;;
11763;SDS011;5939;56.522;14.950;2024-03-02T09:30:36;17.50;;;11.87;;
11763;SDS011;5939;56.522;14.950;2024-03-02T09:33:01;17.60;;;11.07;;
11763;SDS011;5939;56.522;14.950;2024-03-02T09:35:28;18.27;;;11.37;;
11763;SDS011;5939;56.522;14.950;2024-03-02T09:37:53;19.23;;;12.07;;
11763;SDS011;5939;56.522;14.950;2024-03-02T09:40:21;21.63;;;12.10;;
11763;SDS011;5939;56.522;14.950;2024-03-02T09:42:47;19.83;;;11.67;;
11763;SDS011;5939;56.522;14.950;2024-03-02T09:45:19;17.33;;;11.57;;
11763;SDS011;5939;56.522;14.950;2024-03-02T09:47:48;16.47;;;11.73;;
11763;SDS011;5939;56.522;14.950;2024-03-02T09:50:14;14.50;;;10.13;;
11763;SDS011;5939;56.522;14.950;2024-03-02T09:52:42;14.73;;;9.97;;
11763;SDS011;5939;56.522;14.950;2024-03-02T09:55:08;16.87;;;10.17;;
11763;SDS011;5939;56.522;14.950;2024-03-02T09:57:34;13.47;;;10.00;;
11763;SDS011;5939;56.522;14.950;2024-03-02T10:00:00;16.70;;;11.70;;
11763;SDS011;5939;56.522;14.950;2024-03-02T10:02:26;29.73;;;19.77;;
11763;SDS011;5939;56.522;14.950;2024-03-02T10:04:52;76.97;;;47.57;;
11763;SDS011;5939;56.522;14.950;2024-03-02T10:07:18;50.57;;;32.47;;
11763;SDS011;5939;56.522;14.950;2024-03-02T10:09:45;77.00;;;48.90;;
11763;SDS011;5939;56.522;14.950;2024-03-02T10:12:13;95.23;;;59.63;;
11763;SDS011;5939;56.522;14.950;2024-03-02T10:14:40;72.33;;;45.97;;
11763;SDS011;5939;56.522;14.950;2024-03-02T10:17:07;61.20;;;39.10;;
11763;SDS011;5939;56.522;14.950;2024-03-02T10:19:37;55.27;;;37.80;;
11763;SDS011;5939;56.522;14.950;2024-03-02T10:22:04;66.13;;;40.63;;
11763;SDS011;5939;56.522;14.950;2024-03-02T10:24:38;53.03;;;35.43;;
11763;SDS011;5939;56.522;14.950;2024-03-02T10:27:10;50.93;;;34.27;;
11763;SDS011;5939;56.522;14.950;2024-03-02T10:29:56;44.30;;;28.17;;
11763;SDS011;5939;56.522;14.950;2024-03-02T10:32:21;38.53;;;26.23;;
11763;SDS011;5939;56.522;14.950;2024-03-02T10:34:47;40.67;;;27.27;;
11763;SDS011;5939;56.522;14.950;2024-03-02T10:37:15;41.37;;;28.30;;
11763;SDS011;5939;56.522;14.950;2024-03-02T10:39:42;36.97;;;25.40;;
11763;SDS011;5939;56.522;14.950;2024-03-02T10:42:08;34.57;;;23.63;;
11763;SDS011;5939;56.522;14.950;2024-03-02T10:44:34;33.17;;;22.93;;
11763;SDS011;5939;56.522;14.950;2024-03-02T10:47:04;29.60;;;20.60;;
11763;SDS011;5939;56.522;14.950;2024-03-02T10:49:30;31.40;;;20.43;;
11763;SDS011;5939;56.522;14.950;2024-03-02T10:52:00;29.97;;;20.77;;
11763;SDS011;5939;56.522;14.950;2024-03-02T10:54:26;25.10;;;17.97;;
11763;SDS011;5939;56.522;14.950;2024-03-02T10:56:55;28.23;;;18.47;;
11763;SDS011;5939;56.522;14.950;2024-03-02T10:59:28;24.70;;;17.90;;
11763;SDS011;5939;56.522;14.950;2024-03-02T11:01:57;24.27;;;16.73;;
11763;SDS011;5939;56.522;14.950;2024-03-02T11:04:28;27.20;;;17.87;;
11763;SDS011;5939;56.522;14.950;2024-03-02T11:09:26;22.23;;;15.87;;
11763;SDS011;5939;56.522;14.950;2024-03-02T11:12:36;20.30;;;15.23;;
11763;SDS011;5939;56.522;14.950;2024-03-02T11:14:47;22.70;;;16.20;;
11763;SDS011;5939;56.522;14.950;2024-03-02T11:17:15;20.80;;;15.03;;
11763;SDS011;5939;56.522;14.950;2024-03-02T11:19:41;21.80;;;14.90;;
11763;SDS011;5939;56.522;14.950;2024-03-02T11:22:08;21.40;;;15.00;;
11763;SDS011;5939;56.522;14.950;2024-03-02T11:24:34;19.70;;;13.53;;
11763;SDS011;5939;56.522;14.950;2024-03-02T11:27:06;19.97;;;13.93;;
11763;SDS011;5939;56.522;14.950;2024-03-02T11:32:13;19.57;;;14.23;;
11763;SDS011;5939;56.522;14.950;2024-03-02T11:34:46;20.83;;;14.20;;
11763;SDS011;5939;56.522;14.950;2024-03-02T11:37:14;19.90;;;13.57;;
11763;SDS011;5939;56.522;14.950;2024-03-02T11:39:42;17.27;;;12.80;;
11763;SDS011;5939;56.522;14.950;2024-03-02T11:42:09;17.20;;;12.67;;
11763;SDS011;5939;56.522;14.950;2024-03-02T11:44:37;18.80;;;12.37;;
11763;SDS011;5939;56.522;14.950;2024-03-02T11:47:07;19.13;;;13.07;;
11763;SDS011;5939;56.522;14.950;2024-03-02T11:49:48;17.83;;;12.90;;
11763;SDS011;5939;56.522;14.950;2024-03-02T11:52:16;17.73;;;12.60;;
11763;SDS011;5939;56.522;14.950;2024-03-02T11:54:44;16.20;;;12.20;;
11763;SDS011;5939;56.522;14.950;2024-03-02T11:57:15;17.37;;;12.50;;
11763;SDS011;5939;56.522;14.950;2024-03-02T11:59:42;15.67;;;11.77;;
11763;SDS011;5939;56.522;14.950;2024-03-02T12:02:14;17.77;;;12.93;;
11763;SDS011;5939;56.522;14.950;2024-03-02T12:04:44;16.67;;;12.00;;
11763;SDS011;5939;56.522;14.950;2024-03-02T12:07:10;16.57;;;11.80;;
11763;SDS011;5939;56.522;14.950;2024-03-02T12:09:37;14.83;;;11.60;;
11763;SDS011;5939;56.522;14.950;2024-03-02T12:14:32;15.03;;;11.60;;
11763;SDS011;5939;56.522;14.950;2024-03-02T12:16:59;16.63;;;12.57;;
11763;SDS011;5939;56.522;14.950;2024-03-02T12:19:25;18.50;;;13.13;;
11763;SDS011;5939;56.522;14.950;2024-03-02T12:21:52;20.07;;;12.47;;
11763;SDS011;5939;56.522;14.950;2024-03-02T12:24:18;17.57;;;12.87;;
11763;SDS011;5939;56.522;14.950;2024-03-02T12:26:45;18.63;;;13.93;;
11763;SDS011;5939;56.522;14.950;2024-03-02T12:29:13;16.03;;;12.33;;
11763;SDS011;5939;56.522;14.950;2024-03-02T12:31:42;22.10;;;13.33;;
11763;SDS011;5939;56.522;14.950;2024-03-02T12:34:11;21.13;;;13.67;;
11763;SDS011;5939;56.522;14.950;2024-03-02T12:36:38;19.57;;;12.80;;
11763;SDS011;5939;56.522;14.950;2024-03-02T12:39:06;19.50;;;13.47;;
11763;SDS011;5939;56.522;14.950;2024-03-02T12:41:35;19.33;;;13.63;;
11763;SDS011;5939;56.522;14.950;2024-03-02T12:44:02;22.33;;;14.77;;
11763;SDS011;5939;56.522;14.950;2024-03-02T12:46:28;22.00;;;13.77;;
11763;SDS011;5939;56.522;14.950;2024-03-02T12:48:54;22.60;;;14.80;;
11763;SDS011;5939;56.522;14.950;2024-03-02T12:51:19;26.27;;;15.17;;
11763;SDS011;5939;56.522;14.950;2024-03-02T12:53:45;22.90;;;15.33;;
11763;SDS011;5939;56.522;14.950;2024-03-02T12:56:18;26.53;;;14.93;;
11763;SDS011;5939;56.522;14.950;2024-03-02T12:58:43;21.90;;;15.53;;
11763;SDS011;5939;56.522;14.950;2024-03-02T13:01:09;21.40;;;15.30;;
11763;SDS011;5939;56.522;14.950;2024-03-02T13:03:38;26.80;;;15.97;;
11763;SDS011;5939;56.522;14.950;2024-03-02T13:06:07;23.80;;;15.23;;
11763;SDS011;5939;56.522;14.950;2024-03-02T13:08:33;22.73;;;16.23;;
11763;SDS011;5939;56.522;14.950;2024-03-02T13:11:00;26.23;;;16.87;;
11763;SDS011;5939;56.522;14.950;2024-03-02T13:13:26;26.50;;;16.43;;
11763;SDS011;5939;56.522;14.950;2024-03-02T13:15:55;25.90;;;17.13;;
11763;SDS011;5939;56.522;14.950;2024-03-02T13:18:21;29.80;;;18.13;;
11763;SDS011;5939;56.522;14.950;2024-03-02T13:20:47;26.77;;;17.10;;
11763;SDS011;5939;56.522;14.950;2024-03-02T13:23:13;30.00;;;18.60;;
11763;SDS011;5939;56.522;14.950;2024-03-02T13:25:39;30.77;;;19.90;;
11763;SDS011;5939;56.522;14.950;2024-03-02T13:28:05;35.03;;;20.30;;
11763;SDS011;5939;56.522;14.950;2024-03-02T13:30:31;34.37;;;20.40;;
11763;SDS011;5939;56.522;14.950;2024-03-02T13:32:57;35.93;;;21.57;;
11763;SDS011;5939;56.522;14.950;2024-03-02T13:35:23;33.63;;;21.17;;
11763;SDS011;5939;56.522;14.950;2024-03-02T13:37:49;38.60;;;21.77;;
11763;SDS011;5939;56.522;14.950;2024-03-02T13:40:15;38.50;;;22.23;;
11763;SDS011;5939;56.522;14.950;2024-03-02T13:42:45;34.00;;;21.70;;
11763;SDS011;5939;56.522;14.950;2024-03-02T13:45:11;35.07;;;21.40;;
11763;SDS011;5939;56.522;14.950;2024-03-02T13:47:38;38.73;;;22.73;;
11763;SDS011;5939;56.522;14.950;2024-03-02T13:50:04;38.63;;;23.10;;
11763;SDS011;5939;56.522;14.950;2024-03-02T13:52:30;37.37;;;22.40;;
11763;SDS011;5939;56.522;14.950;2024-03-02T13:54:56;38.43;;;23.73;;
11763;SDS011;5939;56.522;14.950;2024-03-02T13:57:21;35.27;;;22.47;;
11763;SDS011;5939;56.522;14.950;2024-03-02T13:59:47;40.90;;;23.23;;
11763;SDS011;5939;56.522;14.950;2024-03-02T14:02:13;38.03;;;22.93;;
11763;SDS011;5939;56.522;14.950;2024-03-02T14:04:40;37.73;;;23.83;;
11763;SDS011;5939;56.522;14.950;2024-03-02T14:07:06;39.13;;;24.20;;
11763;SDS011;5939;56.522;14.950;2024-03-02T14:09:32;38.60;;;24.03;;
11763;SDS011;5939;56.522;14.950;2024-03-02T14:11:58;41.97;;;25.00;;
11763;SDS011;5939;56.522;14.950;2024-03-02T14:14:26;44.10;;;26.03;;
11763;SDS011;5939;56.522;14.950;2024-03-02T14:16:52;42.67;;;25.13;;
11763;SDS011;5939;56.522;14.950;2024-03-02T14:19:20;47.17;;;27.07;;
11763;SDS011;5939;56.522;14.950;2024-03-02T14:21:46;46.53;;;27.43;;
11763;SDS011;5939;56.522;14.950;2024-03-02T14:24:12;48.40;;;27.27;;
11763;SDS011;5939;56.522;14.950;2024-03-02T14:26:39;42.13;;;26.43;;
11763;SDS011;5939;56.522;14.950;2024-03-02T14:29:05;47.33;;;26.27;;
11763;SDS011;5939;56.522;14.950;2024-03-02T14:31:31;47.10;;;26.90;;
11763;SDS011;5939;56.522;14.950;2024-03-02T14:33:57;44.83;;;26.23;;
11763;SDS011;5939;56.522;14.950;2024-03-02T14:36:23;48.03;;;28.10;;